Terminal Aerodrome Forecast
Issued by NWS Charleston, WV

Current Version | Previous Version | Text Only | Print | Product List | Glossary Off
Versions: 1 2 3 4 5 6 7 8 9 10 11 12 13 14 15 16 17 18 19 20 21 22 23 24 25 26 27 28 29 30

000
FTUS41 KRLX 241700 RRA
TAFBKW
TAF
KBKW 241759Z 2418/2518 21006KT 6SM -SN BKN025 BKN100
     FM242000 24006KT P6SM SCT030 SCT100
     FM250800 27007G15KT 5SM -SHSN OVC028
     FM251300 29008KT 6SM -SHSN BKN030
     FM251600 29007KT P6SM BKN035=

USA.gov is the U.S. government's official web portal to all federal, state and local government web resources and services.